Terminal Aerodrome Forecast
Issued by NWS

Home | Current Version | Previous Version | Text Only | Print | Product List | Glossary On
Versions: 1 2 3 4 5 6 7 8 9 10 11 12 13 14 15 16 17 18 19 20 21 22 23 24 25
000
FTUS41 KBGM 270800 AAA
TAFITH
TAF AMD
KITH 270840Z 2709/2806 32006KT 4SM -SHSN OVC007
      TEMPO 2709/2712 OVC012
     FM271200 33005KT P6SM -SHSN OVC015
     FM271700 31006KT P6SM -SHSN OVC030
     FM280000 30004KT P6SM OVC030=

USA.gov is the U.S. government's official web portal to all federal, state and local government web resources and services.